Time;durP1;ratioP1;P1;durP2;ratioP2;P2;SDS_P1;SDS_P2;PMS_P1;PMS_P2;Temp;Humidity;BMP_temperature;BMP_pressure;BME280_temperature;BME280_humidity;BME280_pressure;Samples;Min_cycle;Max_cycle;Signal;HPM_P1;HPM_P2
2022/03/29 00:00:17;;;;;;;;;;;;;;;;;;2195338;59;1706;-68
2022/03/29 00:02:50;;;;;;;;;;;;;;;;;;2195280;67;1167;-68
2022/03/29 00:05:23;;;;;;;;;;;;;;;;;;2197295;67;1872;-69
2022/03/29 00:07:56;;;;;;;;;;;;;;;;;;2192428;60;1153;-68
2022/03/29 00:10:32;;;;;;;;;;;;;;;;;;2195099;67;1909;-69
2022/03/29 00:13:06;;;;;;;;;;;;;;;;;;2194196;59;2032;-68
2022/03/29 00:15:42;;;;;;;;;;;;;;;;;;2193940;67;1207;-68
2022/03/29 00:18:15;;;;;;;;;;;;;;;;;;2192891;60;1172;-68
2022/03/29 00:20:49;;;;;;;;;;;;;;;;;;2192911;59;1775;-68
2022/03/29 00:23:22;;;;;;;;;;;;;;;;;;2193330;59;1123;-68
2022/03/29 00:28:50;;;;;;;;;;;;;;;;;;2194133;67;1192;-69
2022/03/29 00:31:23;;;;;;;;;;;;;;;;;;2200293;54;3483;-71
2022/03/29 00:33:56;;;;;;;;;;;;;;;;;;2203949;59;1410;-71
2022/03/29 00:36:29;;;;;;;;;;;;;;;;;;2205651;59;1099;-71
2022/03/29 00:39:02;;;;;;;;;;;;;;;;;;2209990;59;1154;-71
2022/03/29 00:41:38;;;;;;;;;;;;;;;;;;2210269;67;1290;-71
2022/03/29 00:44:12;;;;;;;;;;;;;;;;;;2209259;59;1451;-71
2022/03/29 00:46:47;;;;;;;;;;;;;;;;;;2206396;67;1194;-71
2022/03/29 00:49:20;;;;;;;;;;;;;;;;;;2209230;59;1222;-71
2022/03/29 00:51:55;;;;;;;;;;;;;;;;;;2210134;59;1984;-71
2022/03/29 00:54:29;;;;;;;;;;;;;;;;;;2208485;67;1318;-72
2022/03/29 00:57:08;;;;;;;;;;;;;;;;;;2210634;67;1171;-71
2022/03/29 00:59:42;;;;;;;;;;;;;;;;;;2209680;67;1062;-71
2022/03/29 01:02:16;;;;;;;;;;;;;;;;;;2210122;67;1246;-71
2022/03/29 01:04:49;;;;;;;;;;;;;;;;;;2207829;59;1995;-71
2022/03/29 01:07:24;;;;;;;;;;;;;;;;;;2209527;67;1172;-71
2022/03/29 01:10:00;;;;;;;;;;;;;;;;;;2209614;67;1984;-71
2022/03/29 01:12:37;;;;;;;;;;;;;;;;;;2208091;59;1898;-71
2022/03/29 01:15:11;;;;;;;;;;;;;;;;;;2209826;67;1086;-71
2022/03/29 01:17:43;;;;;;;;;;;;;;;;;;2210116;59;1267;-71
2022/03/29 01:20:19;;;;;;;;;;;;;;;;;;2207271;67;1239;-71
2022/03/29 01:22:55;;;;;;;;;;;;;;;;;;2209932;59;1208;-71
2022/03/29 01:25:34;;;;;;;;;;;;;;;;;;2206634;67;1133;-71
2022/03/29 01:28:09;;;;;;;;;;;;;;;;;;2210739;67;1155;-71
2022/03/29 01:30:42;;;;;;;;;;;;;;;;;;2210002;59;1932;-71
2022/03/29 01:33:15;;;;;;;;;;;;;;;;;;2205769;67;1401;-71
2022/03/29 01:35:49;;;;;;;;;;;;;;;;;;2210292;67;1057;-71
2022/03/29 01:38:25;;;;;;;;;;;;;;;;;;2206604;67;1620;-71
2022/03/29 01:41:03;;;;;;;;;;;;;;;;;;2210279;60;1256;-71
2022/03/29 01:43:36;;;;;;;;;;;;;;;;;;2210211;59;2093;-71
2022/03/29 01:46:12;;;;;;;;;;;;;;;;;;2210311;67;1274;-71
2022/03/29 01:48:45;;;;;;;;;;;;;;;;;;2210299;67;1185;-71
2022/03/29 01:51:18;;;;;;;;;;;;;;;;;;2205371;59;1944;-71
2022/03/29 01:53:59;;;;;;;;;;;;;;;;;;2209387;67;1098;-71
2022/03/29 01:56:34;;;;;;;;;;;;;;;;;;2210502;67;1138;-71
2022/03/29 01:59:09;;;;;;;;;;;;;;;;;;2209507;67;1207;-71
2022/03/29 02:01:43;;;;;;;;;;;;;;;;;;2206955;67;1457;-71
2022/03/29 02:04:17;;;;;;;;;;;;;;;;;;2209710;67;1193;-71
2022/03/29 02:06:50;;;;;;;;;;;;;;;;;;2210467;59;1312;-72
2022/03/29 02:09:26;;;;;;;;;;;;;;;;;;2210736;67;1255;-71
2022/03/29 02:12:01;;;;;;;;;;;;;;;;;;2210366;59;2167;-72
2022/03/29 02:14:34;;;;;;;;;;;;;;;;;;2209884;59;1245;-72
2022/03/29 02:17:08;;;;;;;;;;;;;;;;;;2210317;67;1274;-71
2022/03/29 02:19:41;;;;;;;;;;;;;;;;;;2211084;67;1164;-71
2022/03/29 02:22:14;;;;;;;;;;;;;;;;;;2210355;67;1187;-71
2022/03/29 02:24:52;;;;;;;;;;;;;;;;;;2211030;67;1041;-71
2022/03/29 02:27:25;;;;;;;;;;;;;;;;;;2207152;67;1140;-71
2022/03/29 02:29:59;;;;;;;;;;;;;;;;;;2206268;59;1246;-72
2022/03/29 02:32:32;;;;;;;;;;;;;;;;;;2209826;59;1936;-71
2022/03/29 02:35:06;;;;;;;;;;;;;;;;;;2209418;67;1308;-72
2022/03/29 02:37:39;;;;;;;;;;;;;;;;;;2210816;67;1084;-71
2022/03/29 02:40:16;;;;;;;;;;;;;;;;;;2211429;59;2019;-71
2022/03/29 02:42:51;;;;;;;;;;;;;;;;;;2211210;59;2024;-71
2022/03/29 02:45:25;;;;;;;;;;;;;;;;;;2210519;67;1286;-71
2022/03/29 02:47:59;;;;;;;;;;;;;;;;;;2212142;67;1200;-71
2022/03/29 02:50:33;;;;;;;;;;;;;;;;;;2209628;59;2276;-71
2022/03/29 02:53:08;;;;;;;;;;;;;;;;;;2210968;67;1213;-71
2022/03/29 02:55:45;;;;;;;;;;;;;;;;;;2211033;67;1193;-71
2022/03/29 02:58:18;;;;;;;;;;;;;;;;;;2207256;67;1272;-71
2022/03/29 03:00:52;;;;;;;;;;;;;;;;;;2210054;59;1181;-71
2022/03/29 03:03:26;;;;;;;;;;;;;;;;;;2210520;67;2306;-71
2022/03/29 03:06:02;;;;;;;;;;;;;;;;;;2209965;59;1254;-71
2022/03/29 03:08:35;;;;;;;;;;;;;;;;;;2209336;67;1056;-71
2022/03/29 03:11:11;;;;;;;;;;;;;;;;;;2209913;59;1949;-71
2022/03/29 03:13:44;;;;;;;;;;;;;;;;;;2208695;67;1191;-71
2022/03/29 03:16:18;;;;;;;;;;;;;;;;;;2209973;67;1279;-71
2022/03/29 03:18:51;;;;;;;;;;;;;;;;;;2209460;59;1570;-71
2022/03/29 03:21:24;;;;;;;;;;;;;;;;;;2205336;67;1418;-71
2022/03/29 03:23:57;;;;;;;;;;;;;;;;;;2210264;67;1222;-71
2022/03/29 03:26:34;;;;;;;;;;;;;;;;;;2210398;59;1543;-71
2022/03/29 03:29:07;;;;;;;;;;;;;;;;;;2210909;67;1315;-71
2022/03/29 03:31:40;;;;;;;;;;;;;;;;;;2209061;59;1938;-71
2022/03/29 03:34:14;;;;;;;;;;;;;;;;;;2209968;59;1242;-71
2022/03/29 03:36:47;;;;;;;;;;;;;;;;;;2210580;59;1115;-71
2022/03/29 03:39:20;;;;;;;;;;;;;;;;;;2206723;67;1898;-71
2022/03/29 03:41:56;;;;;;;;;;;;;;;;;;2206365;59;2014;-71
2022/03/29 03:44:30;;;;;;;;;;;;;;;;;;2210753;67;1380;-71
2022/03/29 03:47:03;;;;;;;;;;;;;;;;;;2209959;59;1139;-71
2022/03/29 03:49:36;;;;;;;;;;;;;;;;;;2211118;67;1097;-71
2022/03/29 03:52:10;;;;;;;;;;;;;;;;;;2208700;59;1931;-71
2022/03/29 03:54:44;;;;;;;;;;;;;;;;;;2209016;67;1092;-71
2022/03/29 03:57:20;;;;;;;;;;;;;;;;;;2211922;67;1196;-71
2022/03/29 03:59:55;;;;;;;;;;;;;;;;;;2206410;67;1223;-72
2022/03/29 04:02:29;;;;;;;;;;;;;;;;;;2210919;59;1349;-71
2022/03/29 04:05:02;;;;;;;;;;;;;;;;;;2210019;67;1148;-71
2022/03/29 04:07:35;;;;;;;;;;;;;;;;;;2210681;67;1056;-71
2022/03/29 04:10:09;;;;;;;;;;;;;;;;;;2210742;67;1220;-72
2022/03/29 04:12:45;;;;;;;;;;;;;;;;;;2209756;59;2122;-71
2022/03/29 04:15:19;;;;;;;;;;;;;;;;;;2208965;67;1104;-71
2022/03/29 04:17:52;;;;;;;;;;;;;;;;;;2210020;67;1044;-71
2022/03/29 04:20:25;;;;;;;;;;;;;;;;;;2209931;67;1242;-71
2022/03/29 04:22:59;;;;;;;;;;;;;;;;;;2209820;67;1122;-71
2022/03/29 04:25:32;;;;;;;;;;;;;;;;;;2209903;59;1155;-73
2022/03/29 04:28:09;;;;;;;;;;;;;;;;;;2209884;67;1217;-71
2022/03/29 04:30:42;;;;;;;;;;;;;;;;;;2209849;59;1805;-72
2022/03/29 04:33:17;;;;;;;;;;;;;;;;;;2210165;67;2068;-72
2022/03/29 04:35:50;;;;;;;;;;;;;;;;;;2209423;67;1179;-71
2022/03/29 04:38:24;;;;;;;;;;;;;;;;;;2209764;67;1208;-71
2022/03/29 04:40:58;;;;;;;;;;;;;;;;;;2209821;59;1189;-71
2022/03/29 04:43:34;;;;;;;;;;;;;;;;;;2209402;67;1184;-71
2022/03/29 04:46:07;;;;;;;;;;;;;;;;;;2209811;67;1204;-71
2022/03/29 04:48:40;;;;;;;;;;;;;;;;;;2209993;67;1104;-71
2022/03/29 04:51:14;;;;;;;;;;;;;;;;;;2209218;59;1979;-71
2022/03/29 04:53:47;;;;;;;;;;;;;;;;;;2209818;67;1205;-71
2022/03/29 04:56:20;;;;;;;;;;;;;;;;;;2206533;67;1195;-71
2022/03/29 04:58:57;;;;;;;;;;;;;;;;;;2209850;59;1189;-72
2022/03/29 05:01:30;;;;;;;;;;;;;;;;;;2210177;67;1287;-72
2022/03/29 05:04:04;;;;;;;;;;;;;;;;;;2210167;59;2132;-72
2022/03/29 05:06:37;;;;;;;;;;;;;;;;;;2209920;59;1285;-71
2022/03/29 05:09:11;;;;;;;;;;;;;;;;;;2209847;59;1914;-71
2022/03/29 05:11:44;;;;;;;;;;;;;;;;;;2209602;59;1923;-71
2022/03/29 05:14:20;;;;;;;;;;;;;;;;;;2209258;59;1652;-71
2022/03/29 05:16:53;;;;;;;;;;;;;;;;;;2209592;67;1330;-72
2022/03/29 05:19:26;;;;;;;;;;;;;;;;;;2210256;59;1507;-71
2022/03/29 05:22:00;;;;;;;;;;;;;;;;;;2210007;67;1199;-71
2022/03/29 05:24:33;;;;;;;;;;;;;;;;;;2210010;67;1187;-71
2022/03/29 05:27:06;;;;;;;;;;;;;;;;;;2209567;59;1477;-71
2022/03/29 05:29:42;;;;;;;;;;;;;;;;;;2209383;67;1067;-71
2022/03/29 05:32:18;;;;;;;;;;;;;;;;;;2205793;59;1930;-71
2022/03/29 05:34:51;;;;;;;;;;;;;;;;;;2208780;59;1170;-71
2022/03/29 05:37:24;;;;;;;;;;;;;;;;;;2209666;67;1143;-72
2022/03/29 05:39:58;;;;;;;;;;;;;;;;;;2206094;67;1147;-72
2022/03/29 05:42:31;;;;;;;;;;;;;;;;;;2209278;59;1278;-71
2022/03/29 05:45:07;;;;;;;;;;;;;;;;;;2208751;67;1107;-71
2022/03/29 05:50:35;;;;;;;;;;;;;;;;;;2197317;59;1822;-71
2022/03/29 05:53:08;;;;;;;;;;;;;;;;;;2208724;67;1934;-71
2022/03/29 05:55:42;;;;;;;;;;;;;;;;;;2209589;67;1044;-71
2022/03/29 05:58:17;;;;;;;;;;;;;;;;;;2209585;67;1096;-71
2022/03/29 06:00:53;;;;;;;;;;;;;;;;;;2209740;67;1215;-71
2022/03/29 06:03:26;;;;;;;;;;;;;;;;;;2210375;59;1938;-71
2022/03/29 06:05:59;;;;;;;;;;;;;;;;;;2210467;67;1274;-71
2022/03/29 06:08:33;;;;;;;;;;;;;;;;;;2209224;67;1223;-71
2022/03/29 06:11:07;;;;;;;;;;;;;;;;;;2209806;59;1916;-71
2022/03/29 06:13:40;;;;;;;;;;;;;;;;;;2203655;59;1956;-71
2022/03/29 06:16:16;;;;;;;;;;;;;;;;;;2209433;59;1531;-71
2022/03/29 06:18:50;;;;;;;;;;;;;;;;;;2209204;67;1073;-71
2022/03/29 06:21:24;;;;;;;;;;;;;;;;;;2208213;59;1917;-71
2022/03/29 06:23:58;;;;;;;;;;;;;;;;;;2209981;62;1252;-72
2022/03/29 06:26:31;;;;;;;;;;;;;;;;;;2208423;67;1229;-71
2022/03/29 06:29:05;;;;;;;;;;;;;;;;;;2209322;59;1577;-71
2022/03/29 06:31:41;;;;;;;;;;;;;;;;;;2209612;59;1978;-71
2022/03/29 06:34:15;;;;;;;;;;;;;;;;;;2209629;67;1385;-72
2022/03/29 06:36:48;;;;;;;;;;;;;;;;;;2206716;67;1094;-72
2022/03/29 06:39:21;;;;;;;;;;;;;;;;;;2210272;67;1128;-71
2022/03/29 06:41:55;;;;;;;;;;;;;;;;;;2209679;67;1248;-71
2022/03/29 06:44:33;;;;;;;;;;;;;;;;;;2208495;67;1267;-71
2022/03/29 06:47:10;;;;;;;;;;;;;;;;;;2209287;59;1244;-71
2022/03/29 06:49:44;;;;;;;;;;;;;;;;;;2209127;67;1238;-72
2022/03/29 06:52:17;;;;;;;;;;;;;;;;;;2210249;59;1929;-72
2022/03/29 06:54:50;;;;;;;;;;;;;;;;;;2210515;67;1193;-71
2022/03/29 06:57:24;;;;;;;;;;;;;;;;;;2210502;67;1226;-71
2022/03/29 06:59:58;;;;;;;;;;;;;;;;;;2210737;67;1125;-71
2022/03/29 07:02:34;;;;;;;;;;;;;;;;;;2209578;59;1183;-72
2022/03/29 07:05:07;;;;;;;;;;;;;;;;;;2210622;59;1982;-72
2022/03/29 07:07:40;;;;;;;;;;;;;;;;;;2210291;67;1161;-72
2022/03/29 07:13:04;;;;;;;;;;;;;;;;;;2205573;59;2042;-71
2022/03/29 07:15:37;;;;;;;;;;;;;;;;;;2210071;59;1907;-72
2022/03/29 07:18:13;;;;;;;;;;;;;;;;;;2209915;67;1120;-72
2022/03/29 07:20:46;;;;;;;;;;;;;;;;;;2210223;67;1246;-72
2022/03/29 07:23:20;;;;;;;;;;;;;;;;;;2209574;67;1231;-72
2022/03/29 07:25:53;;;;;;;;;;;;;;;;;;2210578;67;1234;-72
2022/03/29 07:28:26;;;;;;;;;;;;;;;;;;2209724;59;1592;-72
2022/03/29 07:30:59;;;;;;;;;;;;;;;;;;2210514;59;1731;-72
2022/03/29 07:33:35;;;;;;;;;;;;;;;;;;2205964;59;1933;-72
2022/03/29 07:36:09;;;;;;;;;;;;;;;;;;2209207;59;1193;-72
2022/03/29 07:38:42;;;;;;;;;;;;;;;;;;2210589;59;1144;-72
2022/03/29 07:41:15;;;;;;;;;;;;;;;;;;2209388;59;1656;-72
2022/03/29 07:43:48;;;;;;;;;;;;;;;;;;2209162;59;1056;-72
2022/03/29 07:46:22;;;;;;;;;;;;;;;;;;2209974;67;1183;-72
2022/03/29 07:48:58;;;;;;;;;;;;;;;;;;2209902;59;1309;-72
2022/03/29 07:51:31;;;;;;;;;;;;;;;;;;2209305;59;1529;-72
2022/03/29 07:54:05;;;;;;;;;;;;;;;;;;2209719;59;2000;-72
2022/03/29 07:56:38;;;;;;;;;;;;;;;;;;2210836;67;1032;-72
2022/03/29 07:59:12;;;;;;;;;;;;;;;;;;2210707;67;1355;-72
2022/03/29 08:01:45;;;;;;;;;;;;;;;;;;2209607;59;1239;-72
2022/03/29 08:04:21;;;;;;;;;;;;;;;;;;2209923;59;1842;-72
2022/03/29 08:06:54;;;;;;;;;;;;;;;;;;2210468;59;1290;-72
2022/03/29 08:09:28;;;;;;;;;;;;;;;;;;2209957;59;1586;-72
2022/03/29 08:12:01;;;;;;;;;;;;;;;;;;2210891;59;1913;-72
2022/03/29 08:14:34;;;;;;;;;;;;;;;;;;2209309;67;1932;-71
2022/03/29 08:17:09;;;;;;;;;;;;;;;;;;2210802;59;1283;-72
2022/03/29 08:19:45;;;;;;;;;;;;;;;;;;2206591;67;1384;-72
2022/03/29 08:22:18;;;;;;;;;;;;;;;;;;2209962;67;1316;-72
2022/03/29 08:24:51;;;;;;;;;;;;;;;;;;2209695;59;1253;-72
2022/03/29 08:27:24;;;;;;;;;;;;;;;;;;2210132;67;1251;-71
2022/03/29 08:29:58;;;;;;;;;;;;;;;;;;2209209;67;1183;-72
2022/03/29 08:32:31;;;;;;;;;;;;;;;;;;2210492;59;1939;-72
2022/03/29 08:35:08;;;;;;;;;;;;;;;;;;2208116;59;1249;-72
2022/03/29 08:37:42;;;;;;;;;;;;;;;;;;2210499;67;1088;-72
2022/03/29 08:40:16;;;;;;;;;;;;;;;;;;2209724;67;1250;-72
2022/03/29 08:42:54;;;;;;;;;;;;;;;;;;2210168;59;1229;-72
2022/03/29 08:45:29;;;;;;;;;;;;;;;;;;2206197;67;2109;-72
2022/03/29 08:48:03;;;;;;;;;;;;;;;;;;2209621;62;1179;-72
2022/03/29 08:50:40;;;;;;;;;;;;;;;;;;2205205;59;1807;-72
2022/03/29 08:53:14;;;;;;;;;;;;;;;;;;2206262;67;1939;-72
2022/03/29 08:55:48;;;;;;;;;;;;;;;;;;2209912;60;1070;-72
2022/03/29 08:58:22;;;;;;;;;;;;;;;;;;2210135;59;1120;-72
2022/03/29 09:00:55;;;;;;;;;;;;;;;;;;2209050;59;1313;-72
2022/03/29 09:03:28;;;;;;;;;;;;;;;;;;2211227;59;2018;-72
2022/03/29 09:06:11;;;;;;;;;;;;;;;;;;2205602;67;1416;-72
2022/03/29 09:08:44;;;;;;;;;;;;;;;;;;2210191;59;1108;-72
2022/03/29 09:11:18;;;;;;;;;;;;;;;;;;2209880;59;1707;-72
2022/03/29 09:14:03;;;;;;;;;;;;;;;;;;2207658;59;1989;-73
2022/03/29 09:16:38;;;;;;;;;;;;;;;;;;2209640;67;1273;-72
2022/03/29 09:19:11;;;;;;;;;;;;;;;;;;2208630;59;1269;-72
2022/03/29 09:21:48;;;;;;;;;;;;;;;;;;2209788;67;1209;-72
2022/03/29 09:24:21;;;;;;;;;;;;;;;;;;2210654;67;1137;-72
2022/03/29 09:26:55;;;;;;;;;;;;;;;;;;2208818;67;1185;-72
2022/03/29 09:29:29;;;;;;;;;;;;;;;;;;2206472;67;1281;-72
2022/03/29 09:32:06;;;;;;;;;;;;;;;;;;2209033;59;1845;-72
2022/03/29 09:34:39;;;;;;;;;;;;;;;;;;2208512;59;1901;-73
2022/03/29 09:37:15;;;;;;;;;;;;;;;;;;2209630;67;1188;-72
2022/03/29 09:39:49;;;;;;;;;;;;;;;;;;2209455;59;1157;-72
2022/03/29 09:42:23;;;;;;;;;;;;;;;;;;2210173;59;1266;-72
2022/03/29 09:44:57;;;;;;;;;;;;;;;;;;2208947;67;1215;-72
2022/03/29 09:47:30;;;;;;;;;;;;;;;;;;2206618;67;1123;-72
2022/03/29 09:50:06;;;;;;;;;;;;;;;;;;2209294;59;1118;-72
2022/03/29 09:52:44;;;;;;;;;;;;;;;;;;2208093;59;2184;-72
2022/03/29 09:55:21;;;;;;;;;;;;;;;;;;2210779;67;1177;-72
2022/03/29 09:57:55;;;;;;;;;;;;;;;;;;2209401;67;1121;-72
2022/03/29 10:00:36;;;;;;;;;;;;;;;;;;2209505;67;1293;-72
2022/03/29 10:03:11;;;;;;;;;;;;;;;;;;2209930;59;2002;-72
2022/03/29 10:05:45;;;;;;;;;;;;;;;;;;2209421;67;1188;-73
2022/03/29 10:11:15;;;;;;;;;;;;;;;;;;2209726;59;1885;-72
2022/03/29 10:13:48;;;;;;;;;;;;;;;;;;2208735;67;2195;-72
2022/03/29 10:16:22;;;;;;;;;;;;;;;;;;2210268;67;1212;-72
2022/03/29 10:18:57;;;;;;;;;;;;;;;;;;2209434;67;1235;-72
2022/03/29 10:21:30;;;;;;;;;;;;;;;;;;2209611;67;1228;-73
2022/03/29 10:24:08;;;;;;;;;;;;;;;;;;2208899;59;1527;-72
2022/03/29 10:26:43;;;;;;;;;;;;;;;;;;2210195;67;1158;-72
2022/03/29 10:29:16;;;;;;;;;;;;;;;;;;2210300;67;1161;-72
2022/03/29 10:31:53;;;;;;;;;;;;;;;;;;2209588;59;1716;-72
2022/03/29 10:34:27;;;;;;;;;;;;;;;;;;2209553;67;1941;-73
2022/03/29 10:37:18;;;;;;;;;;;;;;;;;;2210533;67;1160;-72
2022/03/29 10:39:59;;;;;;;;;;;;;;;;;;2210300;67;1253;-72
2022/03/29 10:42:34;;;;;;;;;;;;;;;;;;2208235;67;1258;-72
2022/03/29 10:45:14;;;;;;;;;;;;;;;;;;2209702;67;1191;-72
2022/03/29 10:47:48;;;;;;;;;;;;;;;;;;2210220;67;1221;-73
2022/03/29 10:50:21;;;;;;;;;;;;;;;;;;2210284;67;1259;-73
2022/03/29 10:52:54;;;;;;;;;;;;;;;;;;2208544;59;2009;-72
2022/03/29 10:55:31;;;;;;;;;;;;;;;;;;2209896;67;1949;-72
2022/03/29 10:58:08;;;;;;;;;;;;;;;;;;2209882;67;1074;-72
2022/03/29 11:00:42;;;;;;;;;;;;;;;;;;2209873;67;1225;-72
2022/03/29 11:03:20;;;;;;;;;;;;;;;;;;2210614;59;1933;-73
2022/03/29 11:06:11;;;;;;;;;;;;;;;;;;2210156;59;1317;-72
2022/03/29 11:08:45;;;;;;;;;;;;;;;;;;2210062;67;1179;-72
2022/03/29 11:11:46;;;;;;;;;;;;;;;;;;2210098;59;1590;-72
2022/03/29 11:14:41;;;;;;;;;;;;;;;;;;2203616;59;1939;-72
2022/03/29 11:17:29;;;;;;;;;;;;;;;;;;2210293;67;1098;-72
2022/03/29 11:20:02;;;;;;;;;;;;;;;;;;2207014;67;1162;-72
2022/03/29 11:22:45;;;;;;;;;;;;;;;;;;2210641;67;1258;-73
2022/03/29 11:25:23;;;;;;;;;;;;;;;;;;2208913;67;1228;-72
2022/03/29 11:27:56;;;;;;;;;;;;;;;;;;2209149;67;1193;-72
2022/03/29 11:30:34;;;;;;;;;;;;;;;;;;2210358;59;1748;-73
2022/03/29 11:33:08;;;;;;;;;;;;;;;;;;2205417;67;1299;-72
2022/03/29 11:35:42;;;;;;;;;;;;;;;;;;2209936;60;1981;-72
2022/03/29 11:38:16;;;;;;;;;;;;;;;;;;2206880;67;1405;-72
2022/03/29 11:40:49;;;;;;;;;;;;;;;;;;2209829;59;1242;-72
2022/03/29 11:43:25;;;;;;;;;;;;;;;;;;2210349;59;1280;-72
2022/03/29 11:46:01;;;;;;;;;;;;;;;;;;2209696;67;1253;-72
2022/03/29 11:48:34;;;;;;;;;;;;;;;;;;2206772;59;2278;-72
2022/03/29 11:51:12;;;;;;;;;;;;;;;;;;2209271;59;1574;-72
2022/03/29 11:53:45;;;;;;;;;;;;;;;;;;2209481;67;1909;-73
2022/03/29 11:56:22;;;;;;;;;;;;;;;;;;2210252;67;1274;-72
2022/03/29 11:58:56;;;;;;;;;;;;;;;;;;2208935;59;1214;-72
2022/03/29 12:01:34;;;;;;;;;;;;;;;;;;2210459;59;1232;-72
2022/03/29 12:04:08;;;;;;;;;;;;;;;;;;2208993;59;1922;-72
2022/03/29 12:06:52;;;;;;;;;;;;;;;;;;2210230;67;1100;-72
2022/03/29 12:09:26;;;;;;;;;;;;;;;;;;2209952;67;1119;-72
2022/03/29 12:12:02;;;;;;;;;;;;;;;;;;2209631;59;1945;-73
2022/03/29 12:14:35;;;;;;;;;;;;;;;;;;2210276;59;1941;-73
2022/03/29 12:17:12;;;;;;;;;;;;;;;;;;2209302;59;1254;-72
2022/03/29 12:19:47;;;;;;;;;;;;;;;;;;2210306;59;1233;-72
2022/03/29 12:22:23;;;;;;;;;;;;;;;;;;2210485;67;1270;-72
2022/03/29 12:24:57;;;;;;;;;;;;;;;;;;2210005;67;1132;-72
2022/03/29 12:27:30;;;;;;;;;;;;;;;;;;2209870;59;1362;-72
2022/03/29 12:30:04;;;;;;;;;;;;;;;;;;2210061;59;1113;-72
2022/03/29 12:32:45;;;;;;;;;;;;;;;;;;2209265;53;1985;-70
2022/03/29 12:35:19;;;;;;;;;;;;;;;;;;2207113;59;2152;-69
2022/03/29 12:38:03;;;;;;;;;;;;;;;;;;2209480;67;1214;-69
2022/03/29 12:40:37;;;;;;;;;;;;;;;;;;2205947;59;1420;-69
2022/03/29 12:43:11;;;;;;;;;;;;;;;;;;2208286;59;1202;-69
2022/03/29 12:45:44;;;;;;;;;;;;;;;;;;2208761;67;1164;-70
2022/03/29 12:48:21;;;;;;;;;;;;;;;;;;2208064;59;1183;-69
2022/03/29 12:50:55;;;;;;;;;;;;;;;;;;2207871;59;1318;-69
2022/03/29 12:53:28;;;;;;;;;;;;;;;;;;2208399;59;1760;-69
2022/03/29 12:56:06;;;;;;;;;;;;;;;;;;2209406;67;1983;-70
2022/03/29 12:58:40;;;;;;;;;;;;;;;;;;2208488;67;1078;-69
2022/03/29 13:01:26;;;;;;;;;;;;;;;;;;2204449;67;1272;-69
2022/03/29 13:04:13;;;;;;;;;;;;;;;;;;2208848;59;1930;-69
2022/03/29 13:06:47;;;;;;;;;;;;;;;;;;2208773;59;1128;-69
2022/03/29 13:09:20;;;;;;;;;;;;;;;;;;2208626;67;1109;-69
2022/03/29 13:12:11;;;;;;;;;;;;;;;;;;2208954;59;1800;-69
2022/03/29 13:14:45;;;;;;;;;;;;;;;;;;2205485;67;1983;-70
2022/03/29 13:17:19;;;;;;;;;;;;;;;;;;2208741;67;1181;-70
2022/03/29 13:19:58;;;;;;;;;;;;;;;;;;2209187;59;1132;-69
2022/03/29 13:22:31;;;;;;;;;;;;;;;;;;2204660;67;1989;-70
2022/03/29 13:25:05;;;;;;;;;;;;;;;;;;2207877;67;1270;-69
2022/03/29 13:27:38;;;;;;;;;;;;;;;;;;2208991;67;1214;-69
2022/03/29 13:30:12;;;;;;;;;;;;;;;;;;2209163;59;1162;-70
2022/03/29 13:32:45;;;;;;;;;;;;;;;;;;2208587;59;1761;-69
2022/03/29 13:35:21;;;;;;;;;;;;;;;;;;2204712;67;1958;-69
2022/03/29 13:37:54;;;;;;;;;;;;;;;;;;2209463;67;1123;-69
2022/03/29 13:40:28;;;;;;;;;;;;;;;;;;2208513;59;1229;-69
2022/03/29 13:43:01;;;;;;;;;;;;;;;;;;2208119;67;1139;-69
2022/03/29 13:45:34;;;;;;;;;;;;;;;;;;2208920;59;1679;-70
2022/03/29 13:48:07;;;;;;;;;;;;;;;;;;2208414;67;1195;-69
2022/03/29 13:50:44;;;;;;;;;;;;;;;;;;2208532;59;1225;-70
2022/03/29 13:53:20;;;;;;;;;;;;;;;;;;2209108;59;1645;-69
2022/03/29 13:55:54;;;;;;;;;;;;;;;;;;2208018;59;1929;-69
2022/03/29 13:58:27;;;;;;;;;;;;;;;;;;2209066;67;1076;-70
2022/03/29 14:01:01;;;;;;;;;;;;;;;;;;2208483;67;1203;-69
2022/03/29 14:03:34;;;;;;;;;;;;;;;;;;2207732;59;1824;-70
2022/03/29 14:06:11;;;;;;;;;;;;;;;;;;2208979;67;1070;-69
2022/03/29 14:08:44;;;;;;;;;;;;;;;;;;2209199;59;1224;-69
2022/03/29 14:11:17;;;;;;;;;;;;;;;;;;2207722;59;1743;-70
2022/03/29 14:13:50;;;;;;;;;;;;;;;;;;2209802;59;1184;-70
2022/03/29 14:16:23;;;;;;;;;;;;;;;;;;2208531;67;1935;-69
2022/03/29 14:18:56;;;;;;;;;;;;;;;;;;2208989;67;1112;-69
2022/03/29 14:21:32;;;;;;;;;;;;;;;;;;2208322;67;1187;-70
2022/03/29 14:24:06;;;;;;;;;;;;;;;;;;2208702;67;1198;-69
2022/03/29 14:26:39;;;;;;;;;;;;;;;;;;2210084;60;1193;-69
2022/03/29 14:29:12;;;;;;;;;;;;;;;;;;2209294;59;1265;-69
2022/03/29 14:31:45;;;;;;;;;;;;;;;;;;2208075;59;1694;-70
2022/03/29 14:34:19;;;;;;;;;;;;;;;;;;2208167;67;1175;-69
2022/03/29 14:36:55;;;;;;;;;;;;;;;;;;2209217;67;1114;-70
2022/03/29 14:39:28;;;;;;;;;;;;;;;;;;2208744;67;1088;-70
2022/03/29 14:42:01;;;;;;;;;;;;;;;;;;2208424;59;1172;-69
2022/03/29 14:44:34;;;;;;;;;;;;;;;;;;2207290;59;2069;-69
2022/03/29 14:47:08;;;;;;;;;;;;;;;;;;2207888;67;1128;-69
2022/03/29 14:49:42;;;;;;;;;;;;;;;;;;2207290;59;1073;-70
2022/03/29 14:52:19;;;;;;;;;;;;;;;;;;2207253;59;1692;-69
2022/03/29 14:54:52;;;;;;;;;;;;;;;;;;2209298;59;1943;-69
2022/03/29 14:57:26;;;;;;;;;;;;;;;;;;2207830;59;1097;-69
2022/03/29 14:59:59;;;;;;;;;;;;;;;;;;2208794;59;1108;-69
2022/03/29 15:02:32;;;;;;;;;;;;;;;;;;2208511;67;1184;-69
2022/03/29 15:05:05;;;;;;;;;;;;;;;;;;2207908;67;1078;-70
2022/03/29 15:07:41;;;;;;;;;;;;;;;;;;2208090;67;1132;-69
2022/03/29 15:10:15;;;;;;;;;;;;;;;;;;2208921;67;1073;-69
2022/03/29 15:12:48;;;;;;;;;;;;;;;;;;2208470;59;1644;-70
2022/03/29 15:15:21;;;;;;;;;;;;;;;;;;2208011;67;1937;-69
2022/03/29 15:17:55;;;;;;;;;;;;;;;;;;2210355;67;1128;-69
2022/03/29 15:20:28;;;;;;;;;;;;;;;;;;2208918;59;1070;-69
2022/03/29 15:23:04;;;;;;;;;;;;;;;;;;2209736;67;1170;-69
2022/03/29 15:25:38;;;;;;;;;;;;;;;;;;2209909;67;1136;-69
2022/03/29 15:28:11;;;;;;;;;;;;;;;;;;2209872;67;1262;-69
2022/03/29 15:30:44;;;;;;;;;;;;;;;;;;2210398;59;1089;-69
2022/03/29 15:33:18;;;;;;;;;;;;;;;;;;2207607;59;1575;-69
2022/03/29 15:35:52;;;;;;;;;;;;;;;;;;2207702;67;1999;-69
2022/03/29 15:38:27;;;;;;;;;;;;;;;;;;2209024;67;1243;-69
2022/03/29 15:41:01;;;;;;;;;;;;;;;;;;2207907;67;1167;-69
2022/03/29 15:43:34;;;;;;;;;;;;;;;;;;2208568;59;2080;-69
2022/03/29 15:46:07;;;;;;;;;;;;;;;;;;2207959;59;1090;-69
2022/03/29 15:48:41;;;;;;;;;;;;;;;;;;2208291;59;1088;-69
2022/03/29 15:51:14;;;;;;;;;;;;;;;;;;2207616;59;1657;-69
2022/03/29 15:53:50;;;;;;;;;;;;;;;;;;2207692;59;2341;-69
2022/03/29 15:56:23;;;;;;;;;;;;;;;;;;2208489;59;1929;-69
2022/03/29 15:58:56;;;;;;;;;;;;;;;;;;2208838;59;1167;-69
2022/03/29 16:01:29;;;;;;;;;;;;;;;;;;2208129;67;1188;-69
2022/03/29 16:04:03;;;;;;;;;;;;;;;;;;2208172;59;4369;-69
2022/03/29 16:06:36;;;;;;;;;;;;;;;;;;2209329;59;1112;-69
2022/03/29 16:09:14;;;;;;;;;;;;;;;;;;2208052;67;1206;-70
2022/03/29 16:11:48;;;;;;;;;;;;;;;;;;2207447;59;1684;-69
2022/03/29 16:14:22;;;;;;;;;;;;;;;;;;2206975;67;1118;-70
2022/03/29 16:16:55;;;;;;;;;;;;;;;;;;2207854;67;1933;-69
2022/03/29 16:19:28;;;;;;;;;;;;;;;;;;2208468;67;1124;-69
2022/03/29 16:22:01;;;;;;;;;;;;;;;;;;2205277;67;1484;-69
2022/03/29 16:24:37;;;;;;;;;;;;;;;;;;2207974;59;1171;-69
2022/03/29 16:27:10;;;;;;;;;;;;;;;;;;2204130;67;1420;-69
2022/03/29 16:29:44;;;;;;;;;;;;;;;;;;2209297;67;1239;-69
2022/03/29 16:32:18;;;;;;;;;;;;;;;;;;2208245;59;1708;-70
2022/03/29 16:34:51;;;;;;;;;;;;;;;;;;2207592;67;1278;-69
2022/03/29 16:37:25;;;;;;;;;;;;;;;;;;2209070;67;1918;-69
2022/03/29 16:40:00;;;;;;;;;;;;;;;;;;2206970;67;1262;-69
2022/03/29 16:42:35;;;;;;;;;;;;;;;;;;2208262;59;2029;-70
2022/03/29 16:45:09;;;;;;;;;;;;;;;;;;2208169;59;2093;-69
2022/03/29 16:47:43;;;;;;;;;;;;;;;;;;2208428;67;1264;-69
2022/03/29 16:50:16;;;;;;;;;;;;;;;;;;2207150;67;1377;-69
2022/03/29 16:52:49;;;;;;;;;;;;;;;;;;2208260;59;1591;-69
2022/03/29 16:55:25;;;;;;;;;;;;;;;;;;2208757;67;2003;-69
2022/03/29 16:57:58;;;;;;;;;;;;;;;;;;2208041;59;1199;-69
2022/03/29 17:00:33;;;;;;;;;;;;;;;;;;2207578;59;1609;-69
2022/03/29 17:03:06;;;;;;;;;;;;;;;;;;2207930;67;1271;-69
2022/03/29 17:05:40;;;;;;;;;;;;;;;;;;2209399;59;1245;-69
2022/03/29 17:08:13;;;;;;;;;;;;;;;;;;2208572;67;1150;-69
2022/03/29 17:10:49;;;;;;;;;;;;;;;;;;2209031;59;1179;-69
2022/03/29 17:13:22;;;;;;;;;;;;;;;;;;2207361;59;1622;-69
2022/03/29 17:15:57;;;;;;;;;;;;;;;;;;2208570;67;1988;-69
2022/03/29 17:18:31;;;;;;;;;;;;;;;;;;2209389;67;1056;-70
2022/03/29 17:21:05;;;;;;;;;;;;;;;;;;2208317;67;1235;-70
2022/03/29 17:23:38;;;;;;;;;;;;;;;;;;2208369;67;1423;-69
2022/03/29 17:26:14;;;;;;;;;;;;;;;;;;2208395;67;1210;-69
2022/03/29 17:28:47;;;;;;;;;;;;;;;;;;2208886;67;1218;-69
2022/03/29 17:31:21;;;;;;;;;;;;;;;;;;2207320;59;1680;-69
2022/03/29 17:33:54;;;;;;;;;;;;;;;;;;2206537;67;1128;-69
2022/03/29 17:36:27;;;;;;;;;;;;;;;;;;2206270;59;2077;-69
2022/03/29 17:39:01;;;;;;;;;;;;;;;;;;2208525;67;1184;-70
2022/03/29 17:41:36;;;;;;;;;;;;;;;;;;2208397;59;1767;-69
2022/03/29 17:44:10;;;;;;;;;;;;;;;;;;2204058;59;1999;-69
2022/03/29 17:46:43;;;;;;;;;;;;;;;;;;2209622;59;1107;-70
2022/03/29 17:49:17;;;;;;;;;;;;;;;;;;2208032;59;1117;-69
2022/03/29 17:51:50;;;;;;;;;;;;;;;;;;2208690;59;1712;-69
2022/03/29 17:54:23;;;;;;;;;;;;;;;;;;2208274;59;1133;-69
2022/03/29 17:56:59;;;;;;;;;;;;;;;;;;2208784;67;1925;-70
2022/03/29 17:59:33;;;;;;;;;;;;;;;;;;2209762;59;1076;-70
2022/03/29 18:02:07;;;;;;;;;;;;;;;;;;2207960;59;1184;-69
2022/03/29 18:04:41;;;;;;;;;;;;;;;;;;2209845;67;1293;-70